Terminal Aerodrome Forecast
Issued by NWS Topeka, KS

Home | Current Version | Previous Version | Text Only | Print | Product List | Glossary Off
Versions: 1 2 3 4 5 6 7 8 9 10 11 12 13 14 15 16 17 18 19 20 21 22 23 24 25

000
FTUS43 KTOP 231139
TAFTOP
TAF
KTOP 231139Z 2312/2412 16009KT P6SM BKN009 WS013/20040KT
     FM231400 17010G20KT P6SM BKN012
     FM231600 17010G20KT P6SM BKN025
     FM231800 18012G20KT P6SM SCT035
     FM240300 14010KT P6SM VCTS BKN025CB=

USA.gov is the U.S. government's official web portal to all federal, state and local government web resources and services.